sensor_id;sensor_type;location;lat;lon;timestamp;pressure;altitude;pressure_sealevel;temperature;humidity
55263;BME280;41125;48.752;9.168;2022-10-31T00:00:19;97343.09;;;14.26;76.01
55263;BME280;41125;48.752;9.168;2022-10-31T00:00:49;97343.09;;;14.26;76.08
55263;BME280;41125;48.752;9.168;2022-10-31T00:01:27;97341.16;;;14.27;76.33
55263;BME280;41125;48.752;9.168;2022-10-31T00:02:03;97340.37;;;14.26;75.86
55263;BME280;41125;48.752;9.168;2022-10-31T00:02:34;97343.09;;;14.26;76.08
55263;BME280;41125;48.752;9.168;2022-10-31T00:03:05;97337.62;;;14.26;76.31
55263;BME280;41125;48.752;9.168;2022-10-31T00:03:36;97339.56;;;14.26;76.24
55263;BME280;41125;48.752;9.168;2022-10-31T00:04:08;97349.34;;;14.27;76.00
55263;BME280;41125;48.752;9.168;2022-10-31T00:04:39;97345.00;;;14.26;76.09
55263;BME280;41125;48.752;9.168;2022-10-31T00:05:13;97350.16;;;14.27;76.31
55263;BME280;41125;48.752;9.168;2022-10-31T00:05:48;97339.56;;;14.26;76.23
55263;BME280;41125;48.752;9.168;2022-10-31T00:06:19;97338.44;;;14.27;76.32
55263;BME280;41125;48.752;9.168;2022-10-31T00:06:51;97343.91;;;14.27;76.25
55263;BME280;41125;48.752;9.168;2022-10-31T00:07:22;97343.91;;;14.27;75.92
55263;BME280;41125;48.752;9.168;2022-10-31T00:07:53;97336.81;;;14.26;76.07
55263;BME280;41125;48.752;9.168;2022-10-31T00:08:24;97347.75;;;14.26;75.92
55263;BME280;41125;48.752;9.168;2022-10-31T00:08:56;97340.37;;;14.26;76.21
55263;BME280;41125;48.752;9.168;2022-10-31T00:09:27;97336.03;;;14.25;76.32
55263;BME280;41125;48.752;9.168;2022-10-31T00:09:58;97340.66;;;14.25;75.93
55263;BME280;41125;48.752;9.168;2022-10-31T00:10:29;97340.66;;;14.25;76.15
55263;BME280;41125;48.752;9.168;2022-10-31T00:11:00;97341.47;;;14.25;76.04
55263;BME280;41125;48.752;9.168;2022-10-31T00:11:31;97343.41;;;14.25;76.13
55263;BME280;41125;48.752;9.168;2022-10-31T00:12:02;97335.22;;;14.25;75.90
55263;BME280;41125;48.752;9.168;2022-10-31T00:12:33;97346.13;;;14.25;75.70
55263;BME280;41125;48.752;9.168;2022-10-31T00:13:04;97342.28;;;14.26;75.94
55263;BME280;41125;48.752;9.168;2022-10-31T00:13:35;97336.03;;;14.25;75.50
55263;BME280;41125;48.752;9.168;2022-10-31T00:14:07;97336.81;;;14.26;75.47
55263;BME280;41125;48.752;9.168;2022-10-31T00:14:38;97343.91;;;14.27;75.33
55263;BME280;41125;48.752;9.168;2022-10-31T00:15:09;97332.97;;;14.27;75.26
55263;BME280;41125;48.752;9.168;2022-10-31T00:15:40;97339.56;;;14.26;75.18
55263;BME280;41125;48.752;9.168;2022-10-31T00:16:17;97334.59;;;14.28;75.08
55263;BME280;41125;48.752;9.168;2022-10-31T00:16:49;97338.12;;;14.28;75.22
55263;BME280;41125;48.752;9.168;2022-10-31T00:17:20;97335.41;;;14.28;74.91
55263;BME280;41125;48.752;9.168;2022-10-31T00:17:51;97335.41;;;14.28;74.81
55263;BME280;41125;48.752;9.168;2022-10-31T00:18:22;97340.87;;;14.28;74.79
55263;BME280;41125;48.752;9.168;2022-10-31T00:18:56;97333.50;;;14.29;74.70
55263;BME280;41125;48.752;9.168;2022-10-31T00:19:27;97340.56;;;14.30;74.46
55263;BME280;41125;48.752;9.168;2022-10-31T00:19:58;97337.03;;;14.29;74.55
55263;BME280;41125;48.752;9.168;2022-10-31T00:20:29;97337.84;;;14.30;74.50
55263;BME280;41125;48.752;9.168;2022-10-31T00:21:01;97332.87;;;14.32;74.28
55263;BME280;41125;48.752;9.168;2022-10-31T00:21:32;97341.87;;;14.32;73.88
55263;BME280;41125;48.752;9.168;2022-10-31T00:22:03;97339.97;;;14.33;73.77
55263;BME280;41125;48.752;9.168;2022-10-31T00:22:33;97338.84;;;14.34;73.78
55263;BME280;41125;48.752;9.168;2022-10-31T00:23:08;97333.37;;;14.34;74.01
55263;BME280;41125;48.752;9.168;2022-10-31T00:23:39;97329.53;;;14.35;73.69
55263;BME280;41125;48.752;9.168;2022-10-31T00:24:10;97344.31;;;14.34;73.54
55263;BME280;41125;48.752;9.168;2022-10-31T00:24:41;97335.00;;;14.35;73.27
55263;BME280;41125;48.752;9.168;2022-10-31T00:25:12;97333.87;;;14.36;73.47
55263;BME280;41125;48.752;9.168;2022-10-31T00:25:44;97338.22;;;14.37;73.48
55263;BME280;41125;48.752;9.168;2022-10-31T00:26:15;97331.97;;;14.36;73.12
55263;BME280;41125;48.752;9.168;2022-10-31T00:26:48;97343.69;;;14.37;73.34
55263;BME280;41125;48.752;9.168;2022-10-31T00:27:19;97338.22;;;14.37;73.05
55263;BME280;41125;48.752;9.168;2022-10-31T00:27:50;97339.34;;;14.36;72.94
55263;BME280;41125;48.752;9.168;2022-10-31T00:28:21;97337.44;;;14.36;73.23
55263;BME280;41125;48.752;9.168;2022-10-31T00:28:52;97343.69;;;14.37;73.06
55263;BME280;41125;48.752;9.168;2022-10-31T00:29:23;97339.34;;;14.36;72.99
55263;BME280;41125;48.752;9.168;2022-10-31T00:29:53;97337.44;;;14.36;73.12
55263;BME280;41125;48.752;9.168;2022-10-31T00:30:24;97342.06;;;14.36;73.21
55263;BME280;41125;48.752;9.168;2022-10-31T00:30:59;97336.62;;;14.36;72.98
55263;BME280;41125;48.752;9.168;2022-10-31T00:31:30;97335.81;;;14.35;72.79
55263;BME280;41125;48.752;9.168;2022-10-31T00:32:01;97340.47;;;14.35;72.68
55263;BME280;41125;48.752;9.168;2022-10-31T00:32:32;97340.47;;;14.35;72.95
55263;BME280;41125;48.752;9.168;2022-10-31T00:33:03;97336.62;;;14.36;72.62
55263;BME280;41125;48.752;9.168;2022-10-31T00:33:36;97337.44;;;14.36;72.68
55263;BME280;41125;48.752;9.168;2022-10-31T00:34:08;97331.97;;;14.36;72.31
55263;BME280;41125;48.752;9.168;2022-10-31T00:34:38;97343.69;;;14.37;72.37
55263;BME280;41125;48.752;9.168;2022-10-31T00:35:09;97340.97;;;14.37;72.67
55263;BME280;41125;48.752;9.168;2022-10-31T00:35:40;97335.81;;;14.35;72.80
55263;BME280;41125;48.752;9.168;2022-10-31T00:36:12;97336.62;;;14.36;72.55
55263;BME280;41125;48.752;9.168;2022-10-31T00:36:46;97335.00;;;14.35;72.53
55263;BME280;41125;48.752;9.168;2022-10-31T00:37:20;97339.66;;;14.34;72.88
55263;BME280;41125;48.752;9.168;2022-10-31T00:37:51;97342.69;;;14.33;72.90
55263;BME280;41125;48.752;9.168;2022-10-31T00:38:22;97337.22;;;14.33;72.78
55263;BME280;41125;48.752;9.168;2022-10-31T00:38:53;97336.72;;;14.31;72.84
55263;BME280;41125;48.752;9.168;2022-10-31T00:39:24;97341.69;;;14.29;72.88
55263;BME280;41125;48.752;9.168;2022-10-31T00:39:55;97337.31;;;14.28;72.88
55263;BME280;41125;48.752;9.168;2022-10-31T00:40:26;97333.78;;;14.27;72.97
55263;BME280;41125;48.752;9.168;2022-10-31T00:40:57;97340.37;;;14.26;73.51
55263;BME280;41125;48.752;9.168;2022-10-31T00:41:28;97340.66;;;14.25;73.54
55263;BME280;41125;48.752;9.168;2022-10-31T00:42:00;97339.06;;;14.24;73.59
55263;BME280;41125;48.752;9.168;2022-10-31T00:42:31;97340.16;;;14.23;73.42
55263;BME280;41125;48.752;9.168;2022-10-31T00:43:05;97344.81;;;14.22;73.32
55263;BME280;41125;48.752;9.168;2022-10-31T00:43:36;97343.19;;;14.21;73.30
55263;BME280;41125;48.752;9.168;2022-10-31T00:44:07;97339.66;;;14.21;73.54
55263;BME280;41125;48.752;9.168;2022-10-31T00:44:38;97336.16;;;14.20;73.64
55263;BME280;41125;48.752;9.168;2022-10-31T00:45:09;97342.38;;;14.21;73.64
55263;BME280;41125;48.752;9.168;2022-10-31T00:45:41;97339.66;;;14.21;73.55
55263;BME280;41125;48.752;9.168;2022-10-31T00:46:13;97341.59;;;14.20;73.80
55263;BME280;41125;48.752;9.168;2022-10-31T00:46:44;97339.66;;;14.21;74.01
55263;BME280;41125;48.752;9.168;2022-10-31T00:47:15;97343.53;;;14.20;73.92
55263;BME280;41125;48.752;9.168;2022-10-31T00:47:46;97338.06;;;14.20;73.94
55263;BME280;41125;48.752;9.168;2022-10-31T00:48:16;97337.75;;;14.21;74.24
55263;BME280;41125;48.752;9.168;2022-10-31T00:48:47;97338.06;;;14.20;74.53
55263;BME280;41125;48.752;9.168;2022-10-31T00:49:18;97332.63;;;14.20;74.77
55263;BME280;41125;48.752;9.168;2022-10-31T00:49:49;97340.81;;;14.20;74.57
55263;BME280;41125;48.752;9.168;2022-10-31T00:50:20;97343.53;;;14.20;75.04
55263;BME280;41125;48.752;9.168;2022-10-31T00:50:51;97342.72;;;14.19;74.93
55263;BME280;41125;48.752;9.168;2022-10-31T00:51:21;97346.25;;;14.20;75.08
55263;BME280;41125;48.752;9.168;2022-10-31T00:51:52;97346.56;;;14.18;75.29
55263;BME280;41125;48.752;9.168;2022-10-31T00:52:23;97344.12;;;14.17;75.44
55263;BME280;41125;48.752;9.168;2022-10-31T00:52:54;97337.06;;;14.16;75.79
55263;BME280;41125;48.752;9.168;2022-10-31T00:53:25;97337.06;;;14.16;75.77
55263;BME280;41125;48.752;9.168;2022-10-31T00:53:56;97340.91;;;14.15;75.89
55263;BME280;41125;48.752;9.168;2022-10-31T00:54:26;97339.28;;;14.14;75.81
55263;BME280;41125;48.752;9.168;2022-10-31T00:54:57;97344.75;;;14.14;76.04
55263;BME280;41125;48.752;9.168;2022-10-31T00:55:28;97333.03;;;14.13;75.76
55263;BME280;41125;48.752;9.168;2022-10-31T00:56:00;97343.13;;;14.13;76.08
55263;BME280;41125;48.752;9.168;2022-10-31T00:56:30;97336.06;;;14.12;76.02
55263;BME280;41125;48.752;9.168;2022-10-31T00:57:01;97338.28;;;14.09;76.17
55263;BME280;41125;48.752;9.168;2022-10-31T00:57:32;97342.13;;;14.08;76.33
55263;BME280;41125;48.752;9.168;2022-10-31T00:58:05;97340.50;;;14.07;76.51
55263;BME280;41125;48.752;9.168;2022-10-31T00:58:36;97341.59;;;14.06;76.54
55263;BME280;41125;48.752;9.168;2022-10-31T00:59:08;97335.66;;;14.04;76.62
55263;BME280;41125;48.752;9.168;2022-10-31T00:59:38;97343.31;;;14.02;76.85
55263;BME280;41125;48.752;9.168;2022-10-31T01:00:10;97341.72;;;14.01;76.97
55263;BME280;41125;48.752;9.168;2022-10-31T01:00:41;97337.38;;;14.00;76.90
55263;BME280;41125;48.752;9.168;2022-10-31T01:01:12;97328.66;;;13.98;76.82
55263;BME280;41125;48.752;9.168;2022-10-31T01:01:43;97336.84;;;13.98;76.91
55263;BME280;41125;48.752;9.168;2022-10-31T01:02:14;97344.53;;;13.96;77.06
55263;BME280;41125;48.752;9.168;2022-10-31T01:02:45;97334.72;;;13.95;77.09
55263;BME280;41125;48.752;9.168;2022-10-31T01:03:16;97335.84;;;13.94;77.47
55263;BME280;41125;48.752;9.168;2022-10-31T01:03:46;97336.16;;;13.93;77.34
55263;BME280;41125;48.752;9.168;2022-10-31T01:04:17;97338.88;;;13.93;77.35
55263;BME280;41125;48.752;9.168;2022-10-31T01:04:48;97331.00;;;13.91;77.57
55263;BME280;41125;48.752;9.168;2022-10-31T01:05:22;97336.44;;;13.91;77.65
55263;BME280;41125;48.752;9.168;2022-10-31T01:06:01;97328.56;;;13.90;77.87
55263;BME280;41125;48.752;9.168;2022-10-31T01:06:32;97333.22;;;13.89;78.12
55263;BME280;41125;48.752;9.168;2022-10-31T01:07:03;97337.06;;;13.88;78.20
55263;BME280;41125;48.752;9.168;2022-10-31T01:07:38;97338.16;;;13.87;78.02
55263;BME280;41125;48.752;9.168;2022-10-31T01:08:09;97332.72;;;13.87;78.39
55263;BME280;41125;48.752;9.168;2022-10-31T01:08:40;97334.63;;;13.87;78.59
55263;BME280;41125;48.752;9.168;2022-10-31T01:09:11;97333.81;;;13.86;78.73
55263;BME280;41125;48.752;9.168;2022-10-31T01:09:45;97337.69;;;13.85;78.67
55263;BME280;41125;48.752;9.168;2022-10-31T01:10:17;97342.34;;;13.85;78.29
55263;BME280;41125;48.752;9.168;2022-10-31T01:10:57;97336.38;;;13.83;78.73
55263;BME280;41125;48.752;9.168;2022-10-31T01:11:28;97333.66;;;13.83;78.97
55263;BME280;41125;48.752;9.168;2022-10-31T01:12:00;97333.94;;;13.81;78.94
55263;BME280;41125;48.752;9.168;2022-10-31T01:12:40;97337.47;;;13.82;78.93
55263;BME280;41125;48.752;9.168;2022-10-31T01:13:11;97333.44;;;13.79;78.87
55263;BME280;41125;48.752;9.168;2022-10-31T01:13:43;97327.97;;;13.79;78.66
55263;BME280;41125;48.752;9.168;2022-10-31T01:14:14;97337.28;;;13.78;78.66
55263;BME280;41125;48.752;9.168;2022-10-31T01:14:45;97336.47;;;13.78;78.70
55263;BME280;41125;48.752;9.168;2022-10-31T01:15:19;97335.66;;;13.77;79.02
55263;BME280;41125;48.752;9.168;2022-10-31T01:15:53;97328.59;;;13.76;79.12
55263;BME280;41125;48.752;9.168;2022-10-31T01:16:25;97336.75;;;13.76;78.76
55263;BME280;41125;48.752;9.168;2022-10-31T01:16:56;97332.41;;;13.75;79.06
55263;BME280;41125;48.752;9.168;2022-10-31T01:17:28;97334.03;;;13.76;79.15
55263;BME280;41125;48.752;9.168;2022-10-31T01:17:58;97325.34;;;13.74;78.87
55263;BME280;41125;48.752;9.168;2022-10-31T01:18:29;97330.00;;;13.73;79.12
55263;BME280;41125;48.752;9.168;2022-10-31T01:19:01;97330.81;;;13.74;79.23
55263;BME280;41125;48.752;9.168;2022-10-31T01:19:32;97329.19;;;13.73;79.17
55263;BME280;41125;48.752;9.168;2022-10-31T01:20:03;97328.38;;;13.72;79.27
55263;BME280;41125;48.752;9.168;2022-10-31T01:20:35;97325.94;;;13.71;78.95
55263;BME280;41125;48.752;9.168;2022-10-31T01:21:07;97336.84;;;13.71;79.03
55263;BME280;41125;48.752;9.168;2022-10-31T01:21:38;97330.59;;;13.70;79.29
55263;BME280;41125;48.752;9.168;2022-10-31T01:22:09;97327.06;;;13.70;79.36
55263;BME280;41125;48.752;9.168;2022-10-31T01:22:40;97334.44;;;13.69;79.23
55263;BME280;41125;48.752;9.168;2022-10-31T01:23:11;97330.38;;;13.67;79.30
55263;BME280;41125;48.752;9.168;2022-10-31T01:23:42;97330.38;;;13.67;79.37
55263;BME280;41125;48.752;9.168;2022-10-31T01:24:13;97329.56;;;13.66;79.42
55263;BME280;41125;48.752;9.168;2022-10-31T01:24:47;97329.56;;;13.66;79.58
55263;BME280;41125;48.752;9.168;2022-10-31T01:25:18;97326.03;;;13.66;79.49
55263;BME280;41125;48.752;9.168;2022-10-31T01:25:49;97335.84;;;13.67;79.68
55263;BME280;41125;48.752;9.168;2022-10-31T01:26:21;97329.56;;;13.66;79.77
55263;BME280;41125;48.752;9.168;2022-10-31T01:26:52;97327.97;;;13.65;80.02
55263;BME280;41125;48.752;9.168;2022-10-31T01:27:24;97327.97;;;13.65;79.70
55263;BME280;41125;48.752;9.168;2022-10-31T01:27:55;97329.88;;;13.65;79.87
55263;BME280;41125;48.752;9.168;2022-10-31T01:28:26;97327.16;;;13.65;80.19
55263;BME280;41125;48.752;9.168;2022-10-31T01:28:58;97329.06;;;13.64;79.97
55263;BME280;41125;48.752;9.168;2022-10-31T01:29:30;97325.53;;;13.64;80.21
55263;BME280;41125;48.752;9.168;2022-10-31T01:30:03;97330.19;;;13.63;79.95
55263;BME280;41125;48.752;9.168;2022-10-31T01:30:34;97328.25;;;13.64;80.02
55263;BME280;41125;48.752;9.168;2022-10-31T01:31:06;97328.25;;;13.64;80.39
55263;BME280;41125;48.752;9.168;2022-10-31T01:31:38;97329.38;;;13.63;80.15
55263;BME280;41125;48.752;9.168;2022-10-31T01:32:09;97326.66;;;13.63;80.33
55263;BME280;41125;48.752;9.168;2022-10-31T01:32:40;97323.91;;;13.63;80.62
55263;BME280;41125;48.752;9.168;2022-10-31T01:33:11;97329.66;;;13.61;80.58
55263;BME280;41125;48.752;9.168;2022-10-31T01:33:42;97321.78;;;13.60;80.64
55263;BME280;41125;48.752;9.168;2022-10-31T01:34:15;97319.06;;;13.60;80.55
55263;BME280;41125;48.752;9.168;2022-10-31T01:34:46;97327.25;;;13.60;80.54
55263;BME280;41125;48.752;9.168;2022-10-31T01:35:17;97322.09;;;13.58;80.55
55263;BME280;41125;48.752;9.168;2022-10-31T01:35:47;97328.34;;;13.59;80.60
55263;BME280;41125;48.752;9.168;2022-10-31T01:36:28;97333.00;;;13.58;80.95
55263;BME280;41125;48.752;9.168;2022-10-31T01:37:00;97330.56;;;13.57;81.01
55263;BME280;41125;48.752;9.168;2022-10-31T01:37:31;97335.22;;;13.56;80.70
55263;BME280;41125;48.752;9.168;2022-10-31T01:38:03;97331.69;;;13.56;81.04
55263;BME280;41125;48.752;9.168;2022-10-31T01:38:34;97339.06;;;13.55;80.84
55263;BME280;41125;48.752;9.168;2022-10-31T01:39:06;97331.16;;;13.54;81.00
55263;BME280;41125;48.752;9.168;2022-10-31T01:39:37;97337.44;;;13.54;80.65
55263;BME280;41125;48.752;9.168;2022-10-31T01:40:08;97334.19;;;13.52;80.63
55263;BME280;41125;48.752;9.168;2022-10-31T01:40:39;97338.53;;;13.53;80.70
55263;BME280;41125;48.752;9.168;2022-10-31T01:41:11;97331.81;;;13.51;80.93
55263;BME280;41125;48.752;9.168;2022-10-31T01:41:44;97333.37;;;13.52;80.85
55263;BME280;41125;48.752;9.168;2022-10-31T01:42:17;97330.19;;;13.50;80.78
55263;BME280;41125;48.752;9.168;2022-10-31T01:42:49;97328.56;;;13.49;80.80
55263;BME280;41125;48.752;9.168;2022-10-31T01:43:19;97331.59;;;13.47;80.75
55263;BME280;41125;48.752;9.168;2022-10-31T01:44:00;97337.84;;;13.48;80.42
55263;BME280;41125;48.752;9.168;2022-10-31T01:45:22;97336.84;;;13.44;80.73
55263;BME280;41125;48.752;9.168;2022-10-31T01:45:54;97329.75;;;13.43;80.80
55263;BME280;41125;48.752;9.168;2022-10-31T01:46:33;97332.78;;;13.41;80.81
55263;BME280;41125;48.752;9.168;2022-10-31T01:47:05;97333.59;;;13.41;80.93
55263;BME280;41125;48.752;9.168;2022-10-31T01:47:43;97331.97;;;13.40;80.75
55263;BME280;41125;48.752;9.168;2022-10-31T01:48:17;97327.63;;;13.39;81.03
55263;BME280;41125;48.752;9.168;2022-10-31T01:48:52;97328.75;;;13.38;80.86
55263;BME280;41125;48.752;9.168;2022-10-31T01:49:29;97331.47;;;13.38;80.79
55263;BME280;41125;48.752;9.168;2022-10-31T01:50:04;97328.75;;;13.38;80.80
55263;BME280;41125;48.752;9.168;2022-10-31T01:50:36;97329.84;;;13.37;81.17
55263;BME280;41125;48.752;9.168;2022-10-31T01:51:09;97328.22;;;13.36;80.91
55263;BME280;41125;48.752;9.168;2022-10-31T01:51:45;97332.06;;;13.35;81.17
55263;BME280;41125;48.752;9.168;2022-10-31T01:52:24;97321.47;;;13.34;80.96
55263;BME280;41125;48.752;9.168;2022-10-31T01:52:57;97319.03;;;13.32;81.18
55263;BME280;41125;48.752;9.168;2022-10-31T01:53:29;97324.47;;;13.32;81.40
55263;BME280;41125;48.752;9.168;2022-10-31T01:54:02;97316.59;;;13.31;81.60
55263;BME280;41125;48.752;9.168;2022-10-31T01:54:36;97323.97;;;13.30;81.34
55263;BME280;41125;48.752;9.168;2022-10-31T01:55:09;97325.87;;;13.30;81.43
55263;BME280;41125;48.752;9.168;2022-10-31T01:55:43;97323.97;;;13.30;81.53
55263;BME280;41125;48.752;9.168;2022-10-31T01:56:17;97332.16;;;13.30;81.84
55263;BME280;41125;48.752;9.168;2022-10-31T01:56:50;97320.44;;;13.30;81.84
55263;BME280;41125;48.752;9.168;2022-10-31T01:57:21;97316.91;;;13.29;81.87
55263;BME280;41125;48.752;9.168;2022-10-31T01:57:53;97320.44;;;13.30;81.97
55263;BME280;41125;48.752;9.168;2022-10-31T01:58:27;97314.19;;;13.29;82.29
55263;BME280;41125;48.752;9.168;2022-10-31T01:58:59;97319.13;;;13.27;82.32
55263;BME280;41125;48.752;9.168;2022-10-31T01:59:32;97311.25;;;13.26;82.24
55263;BME280;41125;48.752;9.168;2022-10-31T02:00:06;97320.22;;;13.26;82.06
55263;BME280;41125;48.752;9.168;2022-10-31T02:00:38;97315.88;;;13.25;82.17
55263;BME280;41125;48.752;9.168;2022-10-31T02:01:09;97314.25;;;13.24;82.33
55263;BME280;41125;48.752;9.168;2022-10-31T02:01:40;97318.91;;;13.24;82.36
55263;BME280;41125;48.752;9.168;2022-10-31T02:02:11;97319.19;;;13.22;81.98
55263;BME280;41125;48.752;9.168;2022-10-31T02:02:43;97320.31;;;13.21;82.40
55263;BME280;41125;48.752;9.168;2022-10-31T02:03:16;97313.75;;;13.22;82.10
55263;BME280;41125;48.752;9.168;2022-10-31T02:03:48;97317.59;;;13.21;82.42
55263;BME280;41125;48.752;9.168;2022-10-31T02:04:19;97306.69;;;13.21;82.58
55263;BME280;41125;48.752;9.168;2022-10-31T02:04:51;97313.75;;;13.22;82.54
55263;BME280;41125;48.752;9.168;2022-10-31T02:05:24;97319.19;;;13.22;82.48
55263;BME280;41125;48.752;9.168;2022-10-31T02:05:56;97309.91;;;13.23;82.57
55263;BME280;41125;48.752;9.168;2022-10-31T02:06:33;97315.38;;;13.23;82.54
55263;BME280;41125;48.752;9.168;2022-10-31T02:07:10;97315.38;;;13.23;82.23
55263;BME280;41125;48.752;9.168;2022-10-31T02:07:45;97318.09;;;13.23;82.39
55263;BME280;41125;48.752;9.168;2022-10-31T02:08:27;97318.41;;;13.22;82.11
55263;BME280;41125;48.752;9.168;2022-10-31T02:08:58;97308.91;;;13.19;82.21
55263;BME280;41125;48.752;9.168;2022-10-31T02:09:30;97307.28;;;13.18;82.48
55263;BME280;41125;48.752;9.168;2022-10-31T02:10:03;97317.37;;;13.18;82.01
55263;BME280;41125;48.752;9.168;2022-10-31T02:10:35;97320.09;;;13.18;82.47
55263;BME280;41125;48.752;9.168;2022-10-31T02:11:06;97314.66;;;13.18;82.12
55263;BME280;41125;48.752;9.168;2022-10-31T02:11:38;97313.84;;;13.17;82.27
55263;BME280;41125;48.752;9.168;2022-10-31T02:12:10;97315.47;;;13.18;82.35
55263;BME280;41125;48.752;9.168;2022-10-31T02:12:42;97311.91;;;13.18;82.10
55263;BME280;41125;48.752;9.168;2022-10-31T02:13:15;97319.00;;;13.19;82.13
55263;BME280;41125;48.752;9.168;2022-10-31T02:13:46;97317.37;;;13.18;82.16
55263;BME280;41125;48.752;9.168;2022-10-31T02:14:17;97315.47;;;13.18;81.86
55263;BME280;41125;48.752;9.168;2022-10-31T02:14:49;97312.72;;;13.18;81.97
55263;BME280;41125;48.752;9.168;2022-10-31T02:15:20;97316.56;;;13.17;81.84
55263;BME280;41125;48.752;9.168;2022-10-31T02:15:53;97308.91;;;13.19;81.91
55263;BME280;41125;48.752;9.168;2022-10-31T02:16:25;97309.19;;;13.18;81.96
55263;BME280;41125;48.752;9.168;2022-10-31T02:16:56;97317.06;;;13.19;81.91
55263;BME280;41125;48.752;9.168;2022-10-31T02:17:28;97314.34;;;13.19;82.20
55263;BME280;41125;48.752;9.168;2022-10-31T02:18:00;97313.53;;;13.19;81.89
55263;BME280;41125;48.752;9.168;2022-10-31T02:18:31;97310.81;;;13.19;82.06
55263;BME280;41125;48.752;9.168;2022-10-31T02:19:03;97310.00;;;13.18;81.76
55263;BME280;41125;48.752;9.168;2022-10-31T02:20:25;97308.38;;;13.17;82.08
55263;BME280;41125;48.752;9.168;2022-10-31T02:21:57;97310.53;;;13.20;81.66
55263;BME280;41125;48.752;9.168;2022-10-31T02:22:41;97308.91;;;13.19;81.34
55263;BME280;41125;48.752;9.168;2022-10-31T02:29:05;97321.22;;;13.17;81.03
55263;BME280;41125;48.752;9.168;2022-10-31T02:29:47;97311.91;;;13.18;80.99
55263;BME280;41125;48.752;9.168;2022-10-31T02:30:24;97319.78;;;13.19;80.63
55263;BME280;41125;48.752;9.168;2022-10-31T02:32:55;97310.00;;;13.18;80.83
55263;BME280;41125;48.752;9.168;2022-10-31T02:33:38;97311.13;;;13.17;80.67
55263;BME280;41125;48.752;9.168;2022-10-31T02:34:15;97307.59;;;13.17;80.41
55263;BME280;41125;48.752;9.168;2022-10-31T02:34:53;97309.53;;;13.16;80.25
55263;BME280;41125;48.752;9.168;2022-10-31T02:37:29;97311.13;;;13.17;80.15
55263;BME280;41125;48.752;9.168;2022-10-31T02:38:10;97310.34;;;13.17;79.79
55263;BME280;41125;48.752;9.168;2022-10-31T02:38:51;97311.13;;;13.17;79.39
55263;BME280;41125;48.752;9.168;2022-10-31T02:39:28;97314.97;;;13.16;79.62
55263;BME280;41125;48.752;9.168;2022-10-31T02:40:14;97316.06;;;13.15;79.32
55263;BME280;41125;48.752;9.168;2022-10-31T02:41:54;97314.44;;;13.14;79.48
55263;BME280;41125;48.752;9.168;2022-10-31T02:42:32;97313.91;;;13.12;79.49
55263;BME280;41125;48.752;9.168;2022-10-31T02:44:08;97318.84;;;13.10;79.31
55263;BME280;41125;48.752;9.168;2022-10-31T02:44:52;97316.44;;;13.08;79.60
55263;BME280;41125;48.752;9.168;2022-10-31T02:45:27;97317.03;;;13.05;80.08
55263;BME280;41125;48.752;9.168;2022-10-31T02:46:11;97317.31;;;13.04;80.14
55263;BME280;41125;48.752;9.168;2022-10-31T02:46:48;97321.16;;;13.03;80.69
55263;BME280;41125;48.752;9.168;2022-10-31T02:47:23;97323.38;;;13.01;80.43
55263;BME280;41125;48.752;9.168;2022-10-31T02:47:58;97319.84;;;13.00;80.52
55263;BME280;41125;48.752;9.168;2022-10-31T02:48:31;97315.19;;;13.01;80.79
55263;BME280;41125;48.752;9.168;2022-10-31T02:49:07;97316.28;;;13.00;80.78
55263;BME280;41125;48.752;9.168;2022-10-31T02:49:53;97317.91;;;13.01;80.57
55263;BME280;41125;48.752;9.168;2022-10-31T02:50:26;97317.09;;;13.00;80.83
55263;BME280;41125;48.752;9.168;2022-10-31T02:50:59;97312.47;;;13.01;80.46
55263;BME280;41125;48.752;9.168;2022-10-31T02:51:31;97313.56;;;13.00;80.49
55263;BME280;41125;48.752;9.168;2022-10-31T02:52:02;97305.69;;;12.98;80.34
55263;BME280;41125;48.752;9.168;2022-10-31T02:52:43;97311.44;;;12.97;80.73
55263;BME280;41125;48.752;9.168;2022-10-31T02:53:14;97311.44;;;12.97;80.61
55263;BME280;41125;48.752;9.168;2022-10-31T02:53:46;97309.81;;;12.96;80.90
55263;BME280;41125;48.752;9.168;2022-10-31T02:54:21;97313.66;;;12.95;80.65
55263;BME280;41125;48.752;9.168;2022-10-31T02:54:56;97316.38;;;12.95;80.41
55263;BME280;41125;48.752;9.168;2022-10-31T02:56:18;97314.47;;;12.95;79.79
55263;BME280;41125;48.752;9.168;2022-10-31T02:56:50;97314.47;;;12.95;79.29
55263;BME280;41125;48.752;9.168;2022-10-31T02:57:24;97307.59;;;12.98;79.32
55263;BME280;41125;48.752;9.168;2022-10-31T02:58:04;97313.34;;;12.96;79.32
55263;BME280;41125;48.752;9.168;2022-10-31T02:58:42;97313.06;;;12.98;79.02
55263;BME280;41125;48.752;9.168;2022-10-31T02:59:14;97310.34;;;12.98;79.00
55263;BME280;41125;48.752;9.168;2022-10-31T02:59:48;97313.06;;;12.98;79.09
55263;BME280;41125;48.752;9.168;2022-10-31T03:00:19;97320.13;;;12.99;78.74
55263;BME280;41125;48.752;9.168;2022-10-31T03:03:33;97306.72;;;13.02;78.62
55263;BME280;41125;48.752;9.168;2022-10-31T03:04:15;97302.59;;;13.05;78.55
55263;BME280;41125;48.752;9.168;2022-10-31T03:06:00;97309.66;;;13.06;78.38
55263;BME280;41125;48.752;9.168;2022-10-31T03:06:49;97304.22;;;13.06;77.94
55263;BME280;41125;48.752;9.168;2022-10-31T03:08:26;97308.84;;;13.05;78.02
55263;BME280;41125;48.752;9.168;2022-10-31T03:09:15;97302.59;;;13.05;78.13
55263;BME280;41125;48.752;9.168;2022-10-31T03:10:43;97306.94;;;13.06;78.11
55263;BME280;41125;48.752;9.168;2022-10-31T03:11:16;97304.22;;;13.06;77.82
55263;BME280;41125;48.752;9.168;2022-10-31T03:11:53;97301.78;;;13.04;78.07
55263;BME280;41125;48.752;9.168;2022-10-31T03:12:29;97300.97;;;13.04;77.79
55263;BME280;41125;48.752;9.168;2022-10-31T03:14:11;97304.81;;;13.03;77.76
55263;BME280;41125;48.752;9.168;2022-10-31T03:14:53;97307.53;;;13.03;78.17
55263;BME280;41125;48.752;9.168;2022-10-31T03:15:30;97307.81;;;13.01;78.01
55263;BME280;41125;48.752;9.168;2022-10-31T03:16:10;97306.44;;;13.04;77.83
55263;BME280;41125;48.752;9.168;2022-10-31T03:16:47;97314.09;;;13.02;77.86